createdAt,value
2019-03-15T00:01:56.497Z,23.57
2019-03-15T00:04:26.087Z,22.87
2019-03-15T00:06:55.730Z,21.13
2019-03-15T00:09:25.488Z,16.77
2019-03-15T00:11:55.392Z,16.17
2019-03-15T00:14:25.169Z,16.17
2019-03-15T00:16:54.838Z,15.77
2019-03-15T00:19:24.609Z,14.70
2019-03-15T00:21:54.307Z,15.87
2019-03-15T00:24:23.999Z,16.23
2019-03-15T00:26:53.672Z,16.57
2019-03-15T00:29:23.359Z,15.37
2019-03-15T00:31:52.886Z,16.80
2019-03-15T00:34:22.629Z,14.53
2019-03-15T00:36:52.398Z,14.67
2019-03-15T00:39:22.121Z,15.30
2019-03-15T00:41:51.895Z,15.67
2019-03-15T00:44:21.576Z,15.80
2019-03-15T00:46:51.192Z,15.63
2019-03-15T00:49:21.593Z,14.67
2019-03-15T00:51:51.415Z,15.43
2019-03-15T00:54:21.277Z,15.60
2019-03-15T00:56:51.024Z,14.87
2019-03-15T00:59:20.732Z,15.37
2019-03-15T01:01:50.377Z,15.23
2019-03-15T01:04:20.110Z,15.77
2019-03-15T01:06:49.706Z,14.60
2019-03-15T01:09:21.003Z,14.67
2019-03-15T01:11:50.683Z,15.53
2019-03-15T01:14:20.487Z,15.67
2019-03-15T01:16:50.386Z,15.20
2019-03-15T01:19:19.912Z,16.40
2019-03-15T01:21:49.539Z,16.20
2019-03-15T01:24:19.043Z,17.27
2019-03-15T01:26:48.716Z,17.87
2019-03-15T01:29:18.625Z,18.23
2019-03-15T01:31:48.190Z,18.13
2019-03-15T01:34:17.917Z,16.20
2019-03-15T01:36:47.680Z,16.57
2019-03-15T01:39:17.422Z,16.07
2019-03-15T01:41:47.026Z,16.87
2019-03-15T01:44:16.656Z,16.33
2019-03-15T01:46:46.283Z,17.00
2019-03-15T01:49:15.904Z,17.43
2019-03-15T01:51:45.597Z,17.57
2019-03-15T01:54:15.153Z,16.33
2019-03-15T01:56:44.854Z,18.17
2019-03-15T01:59:14.665Z,19.30
2019-03-15T02:01:44.506Z,17.37
2019-03-15T02:04:14.216Z,19.47
2019-03-15T02:06:43.929Z,18.17
2019-03-15T02:09:13.515Z,17.90
2019-03-15T02:11:43.259Z,18.47
2019-03-15T02:14:12.912Z,19.00
2019-03-15T02:16:42.667Z,17.50
2019-03-15T02:19:12.431Z,16.10
2019-03-15T02:21:42.030Z,16.90
2019-03-15T02:24:11.739Z,17.40
2019-03-15T02:26:41.508Z,15.40
2019-03-15T02:29:11.353Z,16.43
2019-03-15T02:31:40.862Z,16.57
2019-03-15T02:34:10.574Z,16.67
2019-03-15T02:36:40.388Z,15.33
2019-03-15T02:39:10.095Z,14.53
2019-03-15T02:41:39.865Z,14.90
2019-03-15T02:44:09.536Z,14.87
2019-03-15T02:46:39.226Z,13.93
2019-03-15T02:49:08.878Z,15.13
2019-03-15T02:51:38.520Z,16.03
2019-03-15T02:54:08.144Z,13.87
2019-03-15T02:56:37.881Z,15.60
2019-03-15T02:59:07.644Z,15.90
2019-03-15T03:01:37.233Z,14.63
2019-03-15T03:04:06.811Z,16.27
2019-03-15T03:06:36.529Z,17.83
2019-03-15T03:09:07.807Z,16.10
2019-03-15T03:11:37.609Z,15.03
2019-03-15T03:14:07.235Z,16.60
2019-03-15T03:16:36.954Z,15.93
2019-03-15T03:19:06.689Z,15.40
2019-03-15T03:21:36.285Z,16.03
2019-03-15T03:24:06.039Z,16.23
2019-03-15T03:26:35.743Z,16.60
2019-03-15T03:29:05.454Z,16.27
2019-03-15T03:31:35.108Z,17.57
2019-03-15T03:34:04.743Z,26.80
2019-03-15T03:36:34.417Z,50.40
2019-03-15T03:39:06.339Z,20.37
2019-03-15T03:41:36.278Z,18.13
2019-03-15T03:44:05.923Z,26.03
2019-03-15T03:46:35.682Z,35.37
2019-03-15T03:49:05.258Z,19.23
2019-03-15T03:51:35.030Z,25.73
2019-03-15T03:54:05.051Z,25.23
2019-03-15T03:56:35.021Z,21.43
2019-03-15T03:59:04.574Z,20.87
2019-03-15T04:01:34.469Z,24.90
2019-03-15T04:04:04.356Z,27.40
2019-03-15T04:06:34.414Z,26.80
2019-03-15T04:09:04.657Z,23.90
2019-03-15T04:11:34.346Z,20.43
2019-03-15T04:14:04.157Z,19.53
2019-03-15T04:16:33.747Z,21.90
2019-03-15T04:19:03.468Z,46.00
2019-03-15T04:21:33.198Z,31.60
2019-03-15T04:24:02.836Z,19.10
2019-03-15T04:26:32.454Z,17.67
2019-03-15T04:29:02.144Z,16.80
2019-03-15T04:31:31.942Z,17.97
2019-03-15T04:34:01.595Z,17.60
2019-03-15T04:36:31.193Z,17.43
2019-03-15T04:39:00.914Z,17.27
2019-03-15T04:41:33.211Z,18.80
2019-03-15T04:44:02.929Z,20.03
2019-03-15T04:46:32.529Z,17.73
2019-03-15T04:49:02.159Z,19.23
2019-03-15T04:51:31.879Z,21.17
2019-03-15T04:54:01.543Z,18.43
2019-03-15T04:56:31.249Z,22.33
2019-03-15T04:59:00.838Z,19.87
2019-03-15T05:01:30.692Z,17.53
2019-03-15T05:04:00.508Z,18.63
2019-03-15T05:06:30.131Z,24.67
2019-03-15T05:08:59.809Z,32.30
2019-03-15T05:11:29.284Z,21.20
2019-03-15T05:13:59.279Z,21.20
2019-03-15T05:16:28.956Z,20.50
2019-03-15T05:18:58.766Z,20.70
2019-03-15T05:21:28.414Z,21.67
2019-03-15T05:23:58.026Z,24.27
2019-03-15T05:26:29.433Z,26.30
2019-03-15T05:28:59.291Z,25.10
2019-03-15T05:31:28.980Z,26.57
2019-03-15T05:33:58.466Z,26.13
2019-03-15T05:36:28.266Z,25.10
2019-03-15T05:38:58.114Z,23.90
2019-03-15T05:41:27.908Z,23.13
2019-03-15T05:43:57.625Z,21.37
2019-03-15T05:46:27.296Z,23.47
2019-03-15T05:48:56.978Z,30.70
2019-03-15T05:51:26.581Z,27.07
2019-03-15T05:53:56.275Z,29.60
2019-03-15T05:56:26.046Z,30.67
2019-03-15T05:58:55.724Z,31.30
2019-03-15T06:01:25.412Z,43.20
2019-03-15T06:03:55.078Z,31.17
2019-03-15T06:06:24.614Z,29.03
2019-03-15T06:08:54.295Z,27.20
2019-03-15T06:11:23.908Z,25.73
2019-03-15T06:13:53.515Z,21.97
2019-03-15T06:16:23.140Z,25.73
2019-03-15T06:18:52.765Z,23.07
2019-03-15T06:21:22.711Z,20.43
2019-03-15T06:23:52.242Z,20.37
2019-03-15T06:26:21.997Z,19.70
2019-03-15T06:28:51.839Z,19.67
2019-03-15T06:31:21.304Z,17.83
2019-03-15T06:33:50.884Z,16.10
2019-03-15T06:36:20.566Z,15.97
2019-03-15T06:38:50.352Z,16.37
2019-03-15T06:41:20.062Z,14.33
2019-03-15T06:43:49.834Z,14.47
2019-03-15T06:46:19.467Z,14.03
2019-03-15T06:48:49.082Z,14.67
2019-03-15T06:51:18.668Z,15.53
2019-03-15T06:53:48.451Z,16.07
2019-03-15T06:56:18.197Z,14.77
2019-03-15T06:58:47.948Z,14.20
2019-03-15T07:01:17.763Z,14.60
2019-03-15T07:03:47.568Z,13.97
2019-03-15T07:06:17.074Z,13.97
2019-03-15T07:08:46.652Z,14.37
2019-03-15T07:11:16.215Z,14.13
2019-03-15T07:13:45.907Z,13.30
2019-03-15T07:16:15.728Z,14.10
2019-03-15T07:18:45.399Z,14.03
2019-03-15T07:21:15.089Z,13.37
2019-03-15T07:23:44.744Z,14.33
2019-03-15T07:26:14.596Z,14.93
2019-03-15T07:28:44.024Z,13.63
2019-03-15T07:31:13.620Z,13.87
2019-03-15T07:33:43.117Z,13.30
2019-03-15T07:36:12.847Z,14.50
2019-03-15T07:38:42.635Z,13.87
2019-03-15T07:41:12.356Z,14.27
2019-03-15T07:43:41.912Z,13.90
2019-03-15T07:46:11.520Z,12.93
2019-03-15T07:48:41.061Z,14.33
2019-03-15T07:51:10.805Z,14.10
2019-03-15T07:53:40.510Z,14.47
2019-03-15T07:56:10.189Z,13.90
2019-03-15T07:58:39.872Z,13.90
2019-03-15T08:01:09.531Z,13.63
2019-03-15T08:03:39.243Z,14.30
2019-03-15T08:06:08.974Z,13.43
2019-03-15T08:08:38.773Z,13.90
2019-03-15T08:11:08.726Z,13.80
2019-03-15T08:13:38.432Z,15.47
2019-03-15T08:16:08.329Z,15.13
2019-03-15T08:18:38.289Z,14.87
2019-03-15T08:21:08.106Z,15.70
2019-03-15T08:23:38.032Z,15.77
2019-03-15T08:26:07.714Z,20.17
2019-03-15T08:28:37.592Z,13.97
2019-03-15T08:31:07.227Z,13.50
2019-03-15T08:33:36.869Z,13.83
2019-03-15T08:36:06.725Z,13.13
2019-03-15T08:38:46.838Z,12.77
2019-03-15T08:41:07.818Z,13.77
2019-03-15T08:43:37.415Z,13.77
2019-03-15T08:46:06.991Z,12.33
2019-03-15T08:48:36.759Z,13.53
2019-03-15T08:51:06.640Z,13.13
2019-03-15T08:53:36.470Z,13.90
2019-03-15T08:56:06.074Z,13.60
2019-03-15T08:58:35.787Z,13.43
2019-03-15T09:01:05.665Z,13.67
2019-03-15T09:03:35.187Z,13.37
2019-03-15T09:06:04.897Z,13.27
2019-03-15T09:08:37.163Z,13.13
2019-03-15T09:11:06.102Z,11.37
2019-03-15T09:13:35.668Z,11.73
2019-03-15T09:16:05.311Z,12.20
2019-03-15T09:18:34.953Z,12.20
2019-03-15T09:21:04.823Z,11.97
2019-03-15T09:23:34.273Z,10.90
2019-03-15T09:26:04.140Z,12.27
2019-03-15T09:28:33.976Z,12.23
2019-03-15T09:31:03.584Z,12.27
2019-03-15T09:33:33.322Z,11.13
2019-03-15T09:36:02.967Z,11.23
2019-03-15T09:38:32.640Z,13.67
2019-03-15T09:41:02.310Z,11.87
2019-03-15T09:43:31.995Z,11.60
2019-03-15T09:46:01.841Z,12.47
2019-03-15T09:48:31.493Z,11.20
2019-03-15T09:51:01.226Z,10.53
2019-03-15T09:53:30.819Z,9.53
2019-03-15T09:56:00.308Z,9.73
2019-03-15T09:58:30.092Z,7.80
2019-03-15T10:01:00.140Z,8.90
2019-03-15T10:03:30.055Z,9.27
2019-03-15T10:05:59.594Z,9.33
2019-03-15T10:08:29.342Z,9.03
2019-03-15T10:10:59.030Z,6.50
2019-03-15T10:13:28.641Z,6.20
2019-03-15T10:15:58.345Z,6.03
2019-03-15T10:18:28.033Z,8.30
2019-03-15T10:20:57.834Z,7.53
2019-03-15T10:23:27.505Z,7.57
2019-03-15T10:25:57.275Z,4.97
2019-03-15T10:28:26.754Z,4.60
2019-03-15T10:30:56.442Z,4.50
2019-03-15T10:33:26.258Z,4.73
2019-03-15T10:35:55.964Z,7.57
2019-03-15T10:38:25.617Z,5.47
2019-03-15T10:40:55.127Z,5.90
2019-03-15T10:43:24.746Z,6.20
2019-03-15T10:45:54.505Z,7.00
2019-03-15T10:48:25.611Z,5.40
2019-03-15T10:50:55.431Z,5.00
2019-03-15T10:53:25.178Z,4.30
2019-03-15T10:56:00.018Z,4.13
2019-03-15T10:58:26.234Z,5.50
2019-03-15T11:00:56.040Z,5.10
2019-03-15T11:03:25.819Z,7.57
2019-03-15T11:05:55.433Z,5.57
2019-03-15T11:08:25.198Z,6.37
2019-03-15T11:10:54.816Z,6.63
2019-03-15T11:13:24.356Z,7.30
2019-03-15T11:15:54.153Z,5.83
2019-03-15T11:18:23.824Z,6.23
2019-03-15T11:20:53.399Z,7.73
2019-03-15T11:23:23.144Z,5.60
2019-03-15T11:25:52.889Z,5.73
2019-03-15T11:28:22.559Z,4.60
2019-03-15T11:30:52.164Z,5.47
2019-03-15T11:33:21.838Z,4.50
2019-03-15T11:35:51.368Z,3.93
2019-03-15T11:38:20.940Z,4.40
2019-03-15T11:40:50.631Z,4.47
2019-03-15T11:43:20.242Z,5.03
2019-03-15T11:45:49.947Z,6.33
2019-03-15T11:48:19.699Z,5.20
2019-03-15T11:50:49.324Z,4.80
2019-03-15T11:53:19.123Z,4.87
2019-03-15T11:55:48.847Z,4.87
2019-03-15T11:58:18.513Z,5.23
2019-03-15T12:00:48.295Z,4.77
2019-03-15T12:03:17.830Z,5.07
2019-03-15T12:05:47.585Z,4.40
2019-03-15T12:08:17.170Z,4.40
2019-03-15T12:10:46.927Z,4.27
2019-03-15T12:13:16.526Z,4.67
2019-03-15T12:15:46.179Z,4.70
2019-03-15T12:18:15.900Z,4.13
2019-03-15T12:20:45.501Z,5.37
2019-03-15T12:23:15.067Z,4.30
2019-03-15T12:25:44.788Z,4.63
2019-03-15T12:28:14.384Z,4.30
2019-03-15T12:30:44.095Z,4.40
2019-03-15T12:33:13.796Z,4.03
2019-03-15T12:35:43.391Z,4.70
2019-03-15T12:38:12.968Z,3.80
2019-03-15T12:40:42.867Z,4.00
2019-03-15T12:43:12.377Z,3.80
2019-03-15T12:45:42.096Z,3.67
2019-03-15T12:48:11.817Z,4.13
2019-03-15T12:50:41.395Z,4.10
2019-03-15T12:53:11.181Z,4.27
2019-03-15T12:55:40.795Z,4.30
2019-03-15T12:58:10.518Z,4.07
2019-03-15T13:00:40.115Z,4.63
2019-03-15T13:03:09.637Z,3.93
2019-03-15T13:05:39.354Z,3.77
2019-03-15T13:08:09.033Z,4.10
2019-03-15T13:10:38.551Z,3.80
2019-03-15T13:13:08.323Z,3.97
2019-03-15T13:15:38.048Z,3.93
2019-03-15T13:18:07.823Z,3.87
2019-03-15T13:20:37.436Z,4.00
2019-03-15T13:23:06.992Z,4.20
2019-03-15T13:25:36.666Z,3.87
2019-03-15T13:28:06.402Z,3.77
2019-03-15T13:30:36.072Z,4.03
2019-03-15T13:33:19.158Z,3.20
2019-03-15T13:35:37.036Z,3.50
2019-03-15T13:38:06.667Z,4.07
2019-03-15T13:40:37.942Z,3.90
2019-03-15T13:43:07.431Z,3.57
2019-03-15T13:45:37.226Z,3.70
2019-03-15T13:48:06.808Z,3.50
2019-03-15T13:50:36.514Z,3.67
2019-03-15T13:53:06.290Z,3.70
2019-03-15T13:55:35.934Z,3.80
2019-03-15T13:58:05.599Z,3.90
2019-03-15T14:00:35.353Z,4.40
2019-03-15T14:03:05.041Z,4.27
2019-03-15T14:05:34.805Z,6.30
2019-03-15T14:08:11.579Z,7.73
2019-03-15T14:10:48.169Z,11.53
2019-03-15T14:13:07.192Z,8.37
2019-03-15T14:15:36.731Z,12.27
2019-03-15T14:18:06.354Z,4.70
2019-03-15T14:20:36.239Z,4.47
2019-03-15T14:23:05.808Z,3.93
2019-03-15T14:25:35.431Z,4.13
2019-03-15T14:28:05.124Z,4.80
2019-03-15T14:30:34.819Z,4.13
2019-03-15T14:33:04.763Z,4.20
2019-03-15T14:35:34.281Z,3.70
2019-03-15T14:38:04.096Z,4.00
2019-03-15T14:40:33.604Z,4.00
2019-03-15T14:43:03.699Z,3.47
2019-03-15T14:45:33.538Z,3.67
2019-03-15T14:48:03.449Z,3.67
2019-03-15T14:50:33.036Z,3.77
2019-03-15T14:53:02.696Z,27.30
2019-03-15T14:55:32.315Z,4.77
2019-03-15T14:58:02.134Z,4.57
2019-03-15T15:00:31.829Z,3.40
2019-03-15T15:03:01.494Z,3.30
2019-03-15T15:05:31.109Z,3.33
2019-03-15T15:08:00.885Z,2.97
2019-03-15T15:10:30.946Z,3.03
2019-03-15T15:13:00.395Z,2.93
2019-03-15T15:15:30.109Z,3.43
2019-03-15T15:17:59.617Z,3.33
2019-03-15T15:20:30.399Z,3.00
2019-03-15T15:23:00.114Z,3.13
2019-03-15T15:25:30.016Z,3.30
2019-03-15T15:28:04.639Z,3.37
2019-03-15T15:30:31.258Z,3.70
2019-03-15T15:33:00.973Z,3.20
2019-03-15T15:35:30.452Z,3.33
2019-03-15T15:38:00.236Z,3.40
2019-03-15T15:40:30.008Z,3.47
2019-03-15T15:42:59.661Z,3.57
2019-03-15T15:45:29.994Z,3.50
2019-03-15T15:47:59.771Z,3.70
2019-03-15T15:50:29.506Z,3.50
2019-03-15T15:52:59.462Z,4.30
2019-03-15T15:55:29.195Z,4.20
2019-03-15T15:57:58.832Z,4.20
2019-03-15T16:00:28.598Z,5.30
2019-03-15T16:02:58.300Z,4.37
2019-03-15T16:05:28.041Z,4.67
2019-03-15T16:07:57.680Z,4.50
2019-03-15T16:10:27.505Z,4.37
2019-03-15T16:12:57.309Z,4.47
2019-03-15T16:15:27.097Z,7.13
2019-03-15T16:17:56.640Z,5.13
2019-03-15T16:20:26.456Z,4.80
2019-03-15T16:22:56.135Z,4.73
2019-03-15T16:25:25.848Z,4.53
2019-03-15T16:27:55.487Z,4.37
2019-03-15T16:30:25.111Z,3.97
2019-03-15T16:32:54.728Z,4.57
2019-03-15T16:35:24.547Z,4.27
2019-03-15T16:37:54.472Z,4.63
2019-03-15T16:40:24.109Z,4.73
2019-03-15T16:42:53.844Z,5.13
2019-03-15T16:45:23.436Z,5.40
2019-03-15T16:47:53.149Z,4.57
2019-03-15T16:50:22.952Z,6.27
2019-03-15T16:52:52.712Z,5.67
2019-03-15T16:55:22.558Z,4.93
2019-03-15T16:57:52.197Z,5.07
2019-03-15T17:00:22.061Z,5.40
2019-03-15T17:02:51.821Z,5.10
2019-03-15T17:05:21.285Z,5.30
2019-03-15T17:07:51.017Z,5.47
2019-03-15T17:10:20.816Z,6.00
2019-03-15T17:12:50.618Z,6.10
2019-03-15T17:15:20.403Z,7.00
2019-03-15T17:17:50.230Z,6.63
2019-03-15T17:20:20.015Z,6.50
2019-03-15T17:22:49.678Z,6.40
2019-03-15T17:25:19.207Z,6.30
2019-03-15T17:27:48.943Z,6.10
2019-03-15T17:30:18.876Z,6.77
2019-03-15T17:32:48.531Z,6.23
2019-03-15T17:35:19.188Z,5.93
2019-03-15T17:37:49.030Z,6.77
2019-03-15T17:40:18.836Z,6.80
2019-03-15T17:42:48.326Z,5.40
2019-03-15T17:45:18.008Z,5.40
2019-03-15T17:47:48.341Z,5.70
2019-03-15T17:50:18.107Z,6.73
2019-03-15T17:52:47.898Z,5.90
2019-03-15T17:55:18.294Z,6.80
2019-03-15T17:57:48.185Z,5.50
2019-03-15T18:00:26.391Z,5.10
2019-03-15T18:02:56.224Z,7.17
2019-03-15T18:05:26.056Z,5.07
2019-03-15T18:07:55.774Z,5.50
2019-03-15T18:10:25.553Z,3.77
2019-03-15T18:12:55.071Z,4.70
2019-03-15T18:15:24.788Z,6.13
2019-03-15T18:17:54.602Z,3.87
2019-03-15T18:20:24.613Z,4.40
2019-03-15T18:22:54.446Z,4.03
2019-03-15T18:25:24.218Z,3.40
2019-03-15T18:27:54.429Z,3.27
2019-03-15T18:30:24.011Z,3.60
2019-03-15T18:32:53.908Z,3.63
2019-03-15T18:35:33.439Z,4.13
2019-03-15T18:37:55.464Z,4.70
2019-03-15T18:40:25.305Z,4.20
2019-03-15T18:42:55.160Z,4.07
2019-03-15T18:45:24.907Z,3.73
2019-03-15T18:47:54.416Z,3.80
2019-03-15T18:50:25.404Z,4.20
2019-03-15T18:52:55.203Z,3.50
2019-03-15T18:55:24.734Z,4.50
2019-03-15T18:57:54.761Z,3.37
2019-03-15T19:00:24.601Z,4.20
2019-03-15T19:02:54.641Z,4.83
2019-03-15T19:05:24.263Z,4.40
2019-03-15T19:07:54.067Z,4.27
2019-03-15T19:10:23.905Z,4.50
2019-03-15T19:12:53.744Z,5.10
2019-03-15T19:15:23.594Z,4.90
2019-03-15T19:17:53.369Z,4.63
2019-03-15T19:20:23.045Z,4.33
2019-03-15T19:22:52.850Z,4.60
2019-03-15T19:25:22.567Z,4.57
2019-03-15T19:27:52.198Z,4.57
2019-03-15T19:30:21.894Z,4.80
2019-03-15T19:32:51.778Z,4.97
2019-03-15T19:35:21.668Z,4.13
2019-03-15T19:37:51.298Z,4.30
2019-03-15T19:40:21.016Z,4.47
2019-03-15T19:42:50.722Z,4.20
2019-03-15T19:45:20.462Z,4.03
2019-03-15T19:47:50.137Z,4.47
2019-03-15T19:50:19.829Z,4.10
2019-03-15T19:52:49.765Z,4.23
2019-03-15T19:55:19.513Z,4.80
2019-03-15T19:57:49.140Z,4.47
2019-03-15T20:00:18.985Z,4.27
2019-03-15T20:02:48.697Z,4.80
2019-03-15T20:05:18.486Z,5.07
2019-03-15T20:07:48.369Z,4.60
2019-03-15T20:10:18.502Z,5.10
2019-03-15T20:12:48.015Z,4.50
2019-03-15T20:15:18.018Z,3.80
2019-03-15T20:17:47.875Z,3.83
2019-03-15T20:20:17.492Z,4.17
2019-03-15T20:22:47.199Z,4.50
2019-03-15T20:25:16.904Z,4.17
2019-03-15T20:27:46.773Z,4.40
2019-03-15T20:30:22.915Z,4.80
2019-03-15T20:32:48.484Z,5.07
2019-03-15T20:35:18.273Z,4.50
2019-03-15T20:37:48.037Z,4.57
2019-03-15T20:40:17.789Z,4.07
2019-03-15T20:42:47.583Z,5.70
2019-03-15T20:45:17.287Z,4.37
2019-03-15T20:47:47.035Z,3.53
2019-03-15T20:50:16.838Z,4.10
2019-03-15T20:52:46.674Z,4.20
2019-03-15T20:55:16.485Z,4.03
2019-03-15T20:57:46.179Z,4.20
2019-03-15T21:00:16.455Z,4.17
2019-03-15T21:02:46.378Z,4.20
2019-03-15T21:05:16.187Z,3.77
2019-03-15T21:07:46.143Z,4.37
2019-03-15T21:10:15.977Z,4.00
2019-03-15T21:12:45.774Z,4.57
2019-03-15T21:15:15.540Z,4.03
2019-03-15T21:17:45.366Z,4.30
2019-03-15T21:20:15.548Z,4.20
2019-03-15T21:22:45.224Z,4.40
2019-03-15T21:25:15.354Z,3.87
2019-03-15T21:27:53.454Z,4.73
2019-03-15T21:30:16.821Z,4.20
2019-03-15T21:32:46.455Z,4.23
2019-03-15T21:35:16.064Z,4.00
2019-03-15T21:37:45.793Z,4.37
2019-03-15T21:40:15.473Z,4.73
2019-03-15T21:42:45.155Z,4.20
2019-03-15T21:45:15.428Z,12.63
2019-03-15T21:47:45.274Z,18.57
2019-03-15T21:50:14.867Z,22.37
2019-03-15T21:52:44.609Z,23.27
2019-03-15T21:55:14.608Z,19.80
2019-03-15T21:57:44.222Z,20.17
2019-03-15T22:00:14.730Z,16.77
2019-03-15T22:02:44.533Z,16.53
2019-03-15T22:05:14.360Z,14.80
2019-03-15T22:07:44.116Z,15.53
2019-03-15T22:10:13.789Z,17.20
2019-03-15T22:12:43.514Z,16.17
2019-03-15T22:15:13.425Z,16.03
2019-03-15T22:17:43.333Z,16.30
2019-03-15T22:20:13.055Z,14.30
2019-03-15T22:22:42.672Z,15.50
2019-03-15T22:25:12.501Z,15.60
2019-03-15T22:27:42.214Z,15.43
2019-03-15T22:30:11.893Z,15.50
2019-03-15T22:32:41.684Z,17.33
2019-03-15T22:35:11.728Z,16.43
2019-03-15T22:37:41.345Z,16.10
2019-03-15T22:40:11.426Z,16.10
2019-03-15T22:42:41.090Z,15.87
2019-03-15T22:45:10.934Z,15.60
2019-03-15T22:47:40.587Z,16.37
2019-03-15T22:50:10.437Z,17.10
2019-03-15T22:52:40.157Z,14.83
2019-03-15T22:55:10.036Z,14.13
2019-03-15T22:57:39.777Z,14.20
2019-03-15T23:00:12.194Z,13.93
2019-03-15T23:02:41.955Z,14.40
2019-03-15T23:05:11.738Z,14.63
2019-03-15T23:07:41.544Z,14.43
2019-03-15T23:10:11.615Z,15.27
2019-03-15T23:12:41.454Z,16.10
2019-03-15T23:15:11.269Z,15.97
2019-03-15T23:17:40.860Z,18.50
2019-03-15T23:20:10.790Z,19.50
2019-03-15T23:22:40.347Z,20.67
2019-03-15T23:25:10.038Z,20.90
2019-03-15T23:27:39.921Z,20.17
2019-03-15T23:30:09.981Z,20.70
2019-03-15T23:32:39.728Z,21.43
2019-03-15T23:35:09.741Z,22.37
2019-03-15T23:37:39.448Z,20.67
2019-03-15T23:40:09.042Z,19.43
2019-03-15T23:42:38.743Z,20.40
2019-03-15T23:45:08.549Z,19.23
2019-03-15T23:47:38.382Z,22.30
2019-03-15T23:50:08.536Z,18.20
2019-03-15T23:52:38.417Z,16.03
2019-03-15T23:55:08.244Z,15.00
2019-03-15T23:57:37.943Z,14.10
